sensor_id;sensor_type;location;lat;lon;timestamp;temperature;humidity
13354;DHT22;6746;50.892;4.064;2023-05-17T00:01:42;8.70;99.90
13354;DHT22;6746;50.892;4.064;2023-05-17T00:04:31;8.60;99.90
13354;DHT22;6746;50.892;4.064;2023-05-17T00:07:09;8.60;99.90
13354;DHT22;6746;50.892;4.064;2023-05-17T00:09:47;8.50;99.90
13354;DHT22;6746;50.892;4.064;2023-05-17T00:12:26;8.50;99.90
13354;DHT22;6746;50.892;4.064;2023-05-17T00:15:04;8.50;99.90
13354;DHT22;6746;50.892;4.064;2023-05-17T00:17:52;8.50;99.90
13354;DHT22;6746;50.892;4.064;2023-05-17T00:20:30;8.50;99.90
13354;DHT22;6746;50.892;4.064;2023-05-17T00:23:09;8.50;99.90
13354;DHT22;6746;50.892;4.064;2023-05-17T00:25:50;8.50;99.90
13354;DHT22;6746;50.892;4.064;2023-05-17T00:28:28;8.40;99.90
13354;DHT22;6746;50.892;4.064;2023-05-17T00:31:16;8.30;99.90
13354;DHT22;6746;50.892;4.064;2023-05-17T00:33:54;8.30;99.90
13354;DHT22;6746;50.892;4.064;2023-05-17T00:36:33;8.30;99.90
13354;DHT22;6746;50.892;4.064;2023-05-17T00:39:14;8.20;99.90
13354;DHT22;6746;50.892;4.064;2023-05-17T00:41:52;8.20;99.90
13354;DHT22;6746;50.892;4.064;2023-05-17T00:44:30;8.20;99.90
13354;DHT22;6746;50.892;4.064;2023-05-17T00:47:09;8.20;99.90
13354;DHT22;6746;50.892;4.064;2023-05-17T00:49:49;8.20;99.90
13354;DHT22;6746;50.892;4.064;2023-05-17T00:52:28;8.20;99.90
13354;DHT22;6746;50.892;4.064;2023-05-17T00:55:09;8.20;99.90
13354;DHT22;6746;50.892;4.064;2023-05-17T00:57:47;8.20;99.90
13354;DHT22;6746;50.892;4.064;2023-05-17T01:00:35;8.20;99.90
13354;DHT22;6746;50.892;4.064;2023-05-17T01:03:23;8.20;99.90
13354;DHT22;6746;50.892;4.064;2023-05-17T01:06:11;8.10;99.90
13354;DHT22;6746;50.892;4.064;2023-05-17T01:08:59;8.10;99.90
13354;DHT22;6746;50.892;4.064;2023-05-17T01:12:00;8.10;99.90
13354;DHT22;6746;50.892;4.064;2023-05-17T01:15:04;8.00;99.90
13354;DHT22;6746;50.892;4.064;2023-05-17T01:18:11;8.00;99.90
13354;DHT22;6746;50.892;4.064;2023-05-17T01:20:58;8.00;99.90
13354;DHT22;6746;50.892;4.064;2023-05-17T01:23:58;7.90;99.90
13354;DHT22;6746;50.892;4.064;2023-05-17T01:26:43;7.90;99.90
13354;DHT22;6746;50.892;4.064;2023-05-17T01:29:22;7.80;99.90
13354;DHT22;6746;50.892;4.064;2023-05-17T01:32:00;7.70;99.90
13354;DHT22;6746;50.892;4.064;2023-05-17T01:34:38;7.60;99.90
13354;DHT22;6746;50.892;4.064;2023-05-17T01:37:16;7.60;99.90
13354;DHT22;6746;50.892;4.064;2023-05-17T01:39:57;7.50;99.90
13354;DHT22;6746;50.892;4.064;2023-05-17T01:42:36;7.50;99.90
13354;DHT22;6746;50.892;4.064;2023-05-17T01:45:23;7.40;99.90
13354;DHT22;6746;50.892;4.064;2023-05-17T01:48:22;7.40;99.90
13354;DHT22;6746;50.892;4.064;2023-05-17T01:51:12;7.40;99.90
13354;DHT22;6746;50.892;4.064;2023-05-17T01:54:04;7.30;99.90
13354;DHT22;6746;50.892;4.064;2023-05-17T01:56:54;7.30;99.90
13354;DHT22;6746;50.892;4.064;2023-05-17T01:59:39;7.30;99.90
13354;DHT22;6746;50.892;4.064;2023-05-17T02:02:17;7.30;99.90
13354;DHT22;6746;50.892;4.064;2023-05-17T02:04:56;7.20;99.90
13354;DHT22;6746;50.892;4.064;2023-05-17T02:07:36;7.20;99.90
13354;DHT22;6746;50.892;4.064;2023-05-17T02:10:15;7.20;99.90
13354;DHT22;6746;50.892;4.064;2023-05-17T02:12:56;7.10;99.90
13354;DHT22;6746;50.892;4.064;2023-05-17T02:15:34;7.10;99.90
13354;DHT22;6746;50.892;4.064;2023-05-17T02:18:18;7.10;99.90
13354;DHT22;6746;50.892;4.064;2023-05-17T02:20:56;7.00;99.90
13354;DHT22;6746;50.892;4.064;2023-05-17T02:23:43;7.00;99.90
13354;DHT22;6746;50.892;4.064;2023-05-17T02:26:31;6.90;99.90
13354;DHT22;6746;50.892;4.064;2023-05-17T02:29:19;6.90;99.90
13354;DHT22;6746;50.892;4.064;2023-05-17T02:32:08;6.90;99.90
13354;DHT22;6746;50.892;4.064;2023-05-17T02:34:54;6.90;99.90
13354;DHT22;6746;50.892;4.064;2023-05-17T02:37:33;6.90;99.90
13354;DHT22;6746;50.892;4.064;2023-05-17T02:40:14;6.80;99.90
13354;DHT22;6746;50.892;4.064;2023-05-17T02:42:52;6.80;99.90
13354;DHT22;6746;50.892;4.064;2023-05-17T02:45:33;6.80;99.90
13354;DHT22;6746;50.892;4.064;2023-05-17T02:48:11;6.80;99.90
13354;DHT22;6746;50.892;4.064;2023-05-17T02:50:49;6.70;99.90
13354;DHT22;6746;50.892;4.064;2023-05-17T02:53:28;6.70;99.90
13354;DHT22;6746;50.892;4.064;2023-05-17T02:56:15;6.70;99.90
13354;DHT22;6746;50.892;4.064;2023-05-17T02:59:03;6.60;99.90
13354;DHT22;6746;50.892;4.064;2023-05-17T03:01:52;6.60;99.90
13354;DHT22;6746;50.892;4.064;2023-05-17T03:04:40;6.60;99.90
13354;DHT22;6746;50.892;4.064;2023-05-17T03:07:18;6.60;99.90
13354;DHT22;6746;50.892;4.064;2023-05-17T03:09:57;6.50;99.90
13354;DHT22;6746;50.892;4.064;2023-05-17T03:12:37;6.50;99.90
13354;DHT22;6746;50.892;4.064;2023-05-17T03:15:15;6.40;99.90
13354;DHT22;6746;50.892;4.064;2023-05-17T03:17:59;6.40;99.90
13354;DHT22;6746;50.892;4.064;2023-05-17T03:20:37;6.40;99.90
13354;DHT22;6746;50.892;4.064;2023-05-17T03:23:21;6.40;99.90
13354;DHT22;6746;50.892;4.064;2023-05-17T03:25:59;6.40;99.90
13354;DHT22;6746;50.892;4.064;2023-05-17T03:28:37;6.30;99.90
13354;DHT22;6746;50.892;4.064;2023-05-17T03:31:15;6.30;99.90
13354;DHT22;6746;50.892;4.064;2023-05-17T03:33:53;6.30;99.90
13354;DHT22;6746;50.892;4.064;2023-05-17T03:36:33;6.30;99.90
13354;DHT22;6746;50.892;4.064;2023-05-17T03:39:15;6.30;99.90
13354;DHT22;6746;50.892;4.064;2023-05-17T03:41:53;6.30;99.90
13354;DHT22;6746;50.892;4.064;2023-05-17T03:44:36;6.30;99.90
13354;DHT22;6746;50.892;4.064;2023-05-17T03:47:14;6.40;99.90
13354;DHT22;6746;50.892;4.064;2023-05-17T03:49:52;6.40;99.90
13354;DHT22;6746;50.892;4.064;2023-05-17T03:52:30;6.40;99.90
13354;DHT22;6746;50.892;4.064;2023-05-17T03:55:04;6.40;99.90
13354;DHT22;6746;50.892;4.064;2023-05-17T03:57:33;6.50;99.90
13354;DHT22;6746;50.892;4.064;2023-05-17T04:00:12;6.50;99.90
13354;DHT22;6746;50.892;4.064;2023-05-17T04:02:50;6.60;99.90
13354;DHT22;6746;50.892;4.064;2023-05-17T04:05:28;6.60;99.90
13354;DHT22;6746;50.892;4.064;2023-05-17T04:08:07;6.70;99.90
13354;DHT22;6746;50.892;4.064;2023-05-17T04:10:45;6.70;99.90
13354;DHT22;6746;50.892;4.064;2023-05-17T04:13:23;6.80;99.90
13354;DHT22;6746;50.892;4.064;2023-05-17T04:15:54;6.90;99.90
13354;DHT22;6746;50.892;4.064;2023-05-17T04:18:24;7.00;99.90
13354;DHT22;6746;50.892;4.064;2023-05-17T04:21:02;7.00;99.90
13354;DHT22;6746;50.892;4.064;2023-05-17T04:23:36;7.10;99.90
13354;DHT22;6746;50.892;4.064;2023-05-17T04:26:05;7.20;99.90
13354;DHT22;6746;50.892;4.064;2023-05-17T04:28:33;7.30;99.90
13354;DHT22;6746;50.892;4.064;2023-05-17T04:31:05;7.30;99.90
13354;DHT22;6746;50.892;4.064;2023-05-17T04:33:41;7.40;99.90
13354;DHT22;6746;50.892;4.064;2023-05-17T04:36:13;7.40;99.90
13354;DHT22;6746;50.892;4.064;2023-05-17T04:38:41;7.40;99.90
13354;DHT22;6746;50.892;4.064;2023-05-17T04:41:15;7.50;99.90
13354;DHT22;6746;50.892;4.064;2023-05-17T04:43:44;7.60;99.90
13354;DHT22;6746;50.892;4.064;2023-05-17T04:46:23;7.70;99.90
13354;DHT22;6746;50.892;4.064;2023-05-17T04:49:01;7.80;99.90
13354;DHT22;6746;50.892;4.064;2023-05-17T04:51:39;7.90;99.90
13354;DHT22;6746;50.892;4.064;2023-05-17T04:54:17;8.00;99.90
13354;DHT22;6746;50.892;4.064;2023-05-17T04:56:56;8.00;99.90
13354;DHT22;6746;50.892;4.064;2023-05-17T04:59:34;8.10;99.90
13354;DHT22;6746;50.892;4.064;2023-05-17T05:02:05;8.20;99.90
13354;DHT22;6746;50.892;4.064;2023-05-17T05:04:34;8.20;99.90
13354;DHT22;6746;50.892;4.064;2023-05-17T05:07:08;8.40;99.90
13354;DHT22;6746;50.892;4.064;2023-05-17T05:09:37;8.50;99.90
13354;DHT22;6746;50.892;4.064;2023-05-17T05:12:16;8.60;99.90
13354;DHT22;6746;50.892;4.064;2023-05-17T05:14:52;8.70;99.90
13354;DHT22;6746;50.892;4.064;2023-05-17T05:17:21;8.80;99.90
13354;DHT22;6746;50.892;4.064;2023-05-17T05:19:50;8.90;99.90
13354;DHT22;6746;50.892;4.064;2023-05-17T05:22:19;9.10;99.90
13354;DHT22;6746;50.892;4.064;2023-05-17T05:24:57;9.30;99.90
13354;DHT22;6746;50.892;4.064;2023-05-17T05:27:36;9.40;99.90
13354;DHT22;6746;50.892;4.064;2023-05-17T05:30:14;9.50;99.90
13354;DHT22;6746;50.892;4.064;2023-05-17T05:32:54;9.70;99.90
13354;DHT22;6746;50.892;4.064;2023-05-17T05:35:33;9.80;99.90
13354;DHT22;6746;50.892;4.064;2023-05-17T05:38:11;9.90;99.90
13354;DHT22;6746;50.892;4.064;2023-05-17T05:40:49;10.10;99.90
13354;DHT22;6746;50.892;4.064;2023-05-17T05:43:18;10.20;99.90
13354;DHT22;6746;50.892;4.064;2023-05-17T05:45:46;10.40;99.90
13354;DHT22;6746;50.892;4.064;2023-05-17T05:48:15;10.60;99.90
13354;DHT22;6746;50.892;4.064;2023-05-17T05:50:44;10.70;99.90
13354;DHT22;6746;50.892;4.064;2023-05-17T05:53:12;10.70;99.90
13354;DHT22;6746;50.892;4.064;2023-05-17T05:55:41;10.70;99.90
13354;DHT22;6746;50.892;4.064;2023-05-17T05:58:17;10.80;99.90
13354;DHT22;6746;50.892;4.064;2023-05-17T06:00:46;10.80;99.90
13354;DHT22;6746;50.892;4.064;2023-05-17T06:03:20;10.80;99.90
13354;DHT22;6746;50.892;4.064;2023-05-17T06:05:50;10.90;99.90
13354;DHT22;6746;50.892;4.064;2023-05-17T06:08:28;11.10;99.90
13354;DHT22;6746;50.892;4.064;2023-05-17T06:10:59;11.20;99.90
13354;DHT22;6746;50.892;4.064;2023-05-17T06:13:27;11.30;99.90
13354;DHT22;6746;50.892;4.064;2023-05-17T06:16:05;11.50;99.90
13354;DHT22;6746;50.892;4.064;2023-05-17T06:18:37;11.70;99.90
13354;DHT22;6746;50.892;4.064;2023-05-17T06:21:06;11.90;99.90
13354;DHT22;6746;50.892;4.064;2023-05-17T06:23:35;12.10;99.90
13354;DHT22;6746;50.892;4.064;2023-05-17T06:26:03;12.20;99.90
13354;DHT22;6746;50.892;4.064;2023-05-17T06:28:41;12.40;99.90
13354;DHT22;6746;50.892;4.064;2023-05-17T06:31:10;12.50;99.90
13354;DHT22;6746;50.892;4.064;2023-05-17T06:33:38;12.70;99.90
13354;DHT22;6746;50.892;4.064;2023-05-17T06:36:16;12.70;99.90
13354;DHT22;6746;50.892;4.064;2023-05-17T06:38:59;13.10;99.90
13354;DHT22;6746;50.892;4.064;2023-05-17T06:41:37;13.30;99.90
13354;DHT22;6746;50.892;4.064;2023-05-17T06:44:15;13.30;99.90
13354;DHT22;6746;50.892;4.064;2023-05-17T06:46:53;13.40;99.90
13354;DHT22;6746;50.892;4.064;2023-05-17T06:49:31;13.60;99.90
13354;DHT22;6746;50.892;4.064;2023-05-17T06:52:00;13.60;99.90
13354;DHT22;6746;50.892;4.064;2023-05-17T06:54:29;13.40;99.90
13354;DHT22;6746;50.892;4.064;2023-05-17T06:57:01;13.60;99.90
13354;DHT22;6746;50.892;4.064;2023-05-17T06:59:29;14.00;99.90
13354;DHT22;6746;50.892;4.064;2023-05-17T07:02:07;14.40;99.90
13354;DHT22;6746;50.892;4.064;2023-05-17T07:04:37;14.70;99.90
13354;DHT22;6746;50.892;4.064;2023-05-17T07:07:06;14.90;99.90
13354;DHT22;6746;50.892;4.064;2023-05-17T07:09:44;14.40;99.90
13354;DHT22;6746;50.892;4.064;2023-05-17T07:12:12;14.60;99.90
13354;DHT22;6746;50.892;4.064;2023-05-17T07:14:41;15.00;99.90
13354;DHT22;6746;50.892;4.064;2023-05-17T07:17:19;15.10;99.90
13354;DHT22;6746;50.892;4.064;2023-05-17T07:19:47;14.80;99.90
13354;DHT22;6746;50.892;4.064;2023-05-17T07:22:16;14.90;99.90
13354;DHT22;6746;50.892;4.064;2023-05-17T07:24:47;15.10;99.90
13354;DHT22;6746;50.892;4.064;2023-05-17T07:27:15;15.20;99.90
13354;DHT22;6746;50.892;4.064;2023-05-17T07:29:46;15.40;99.90
13354;DHT22;6746;50.892;4.064;2023-05-17T07:32:15;15.60;99.90
13354;DHT22;6746;50.892;4.064;2023-05-17T07:34:54;15.70;99.90
13354;DHT22;6746;50.892;4.064;2023-05-17T07:37:23;15.40;99.90
13354;DHT22;6746;50.892;4.064;2023-05-17T07:39:51;15.30;99.90
13354;DHT22;6746;50.892;4.064;2023-05-17T07:42:20;15.30;99.90
13354;DHT22;6746;50.892;4.064;2023-05-17T07:44:50;15.40;99.90
13354;DHT22;6746;50.892;4.064;2023-05-17T07:47:28;15.40;99.90
13354;DHT22;6746;50.892;4.064;2023-05-17T07:50:06;15.50;99.90
13354;DHT22;6746;50.892;4.064;2023-05-17T07:52:44;15.60;99.90
13354;DHT22;6746;50.892;4.064;2023-05-17T07:55:23;15.70;99.90
13354;DHT22;6746;50.892;4.064;2023-05-17T07:57:58;15.70;99.90
13354;DHT22;6746;50.892;4.064;2023-05-17T08:00:27;15.70;99.90
13354;DHT22;6746;50.892;4.064;2023-05-17T08:03:06;16.00;99.90
13354;DHT22;6746;50.892;4.064;2023-05-17T08:05:44;16.20;99.90
13354;DHT22;6746;50.892;4.064;2023-05-17T08:08:12;16.10;99.90
13354;DHT22;6746;50.892;4.064;2023-05-17T08:10:41;16.20;99.90
13354;DHT22;6746;50.892;4.064;2023-05-17T08:13:13;16.30;99.90
13354;DHT22;6746;50.892;4.064;2023-05-17T08:15:42;16.50;99.90
13354;DHT22;6746;50.892;4.064;2023-05-17T08:18:21;16.20;99.90
13354;DHT22;6746;50.892;4.064;2023-05-17T08:20:59;16.10;99.90
13354;DHT22;6746;50.892;4.064;2023-05-17T08:23:35;16.30;99.90
13354;DHT22;6746;50.892;4.064;2023-05-17T08:26:04;16.40;99.90
13354;DHT22;6746;50.892;4.064;2023-05-17T08:28:36;16.60;99.90
13354;DHT22;6746;50.892;4.064;2023-05-17T08:31:05;16.70;99.90
13354;DHT22;6746;50.892;4.064;2023-05-17T08:33:33;17.10;99.90
13354;DHT22;6746;50.892;4.064;2023-05-17T08:36:02;16.90;99.90
13354;DHT22;6746;50.892;4.064;2023-05-17T08:38:34;16.70;99.90
13354;DHT22;6746;50.892;4.064;2023-05-17T08:41:03;16.30;99.90
13354;DHT22;6746;50.892;4.064;2023-05-17T08:43:41;16.00;99.90
13354;DHT22;6746;50.892;4.064;2023-05-17T08:46:10;16.10;99.90
13354;DHT22;6746;50.892;4.064;2023-05-17T08:48:39;16.20;99.90
13354;DHT22;6746;50.892;4.064;2023-05-17T08:51:08;16.50;99.90
13354;DHT22;6746;50.892;4.064;2023-05-17T08:53:40;16.60;99.90
13354;DHT22;6746;50.892;4.064;2023-05-17T08:56:15;16.80;99.90
13354;DHT22;6746;50.892;4.064;2023-05-17T08:58:46;16.50;99.90
13354;DHT22;6746;50.892;4.064;2023-05-17T09:01:22;16.20;99.90
13354;DHT22;6746;50.892;4.064;2023-05-17T09:03:52;16.00;99.90
13354;DHT22;6746;50.892;4.064;2023-05-17T09:06:23;15.90;99.90
13354;DHT22;6746;50.892;4.064;2023-05-17T09:08:53;15.90;99.90
13354;DHT22;6746;50.892;4.064;2023-05-17T09:11:31;15.90;99.90
13354;DHT22;6746;50.892;4.064;2023-05-17T09:14:02;16.30;99.90
13354;DHT22;6746;50.892;4.064;2023-05-17T09:16:31;16.40;99.90
13354;DHT22;6746;50.892;4.064;2023-05-17T09:19:13;16.80;99.90
13354;DHT22;6746;50.892;4.064;2023-05-17T09:21:47;17.00;99.90
13354;DHT22;6746;50.892;4.064;2023-05-17T09:24:32;17.30;99.90
13354;DHT22;6746;50.892;4.064;2023-05-17T09:27:13;17.30;99.90
13354;DHT22;6746;50.892;4.064;2023-05-17T09:30:01;17.00;99.90
13354;DHT22;6746;50.892;4.064;2023-05-17T09:32:46;17.00;99.90
13354;DHT22;6746;50.892;4.064;2023-05-17T09:35:27;17.10;99.90
13354;DHT22;6746;50.892;4.064;2023-05-17T09:38:05;17.30;99.90
13354;DHT22;6746;50.892;4.064;2023-05-17T09:40:44;17.30;99.90
13354;DHT22;6746;50.892;4.064;2023-05-17T09:43:10;17.40;99.90
13354;DHT22;6746;50.892;4.064;2023-05-17T09:45:54;17.30;99.90
13354;DHT22;6746;50.892;4.064;2023-05-17T09:48:32;17.00;99.90
13354;DHT22;6746;50.892;4.064;2023-05-17T09:51:04;17.20;99.90
13354;DHT22;6746;50.892;4.064;2023-05-17T09:53:33;17.50;99.90
13354;DHT22;6746;50.892;4.064;2023-05-17T09:56:04;17.50;99.90
13354;DHT22;6746;50.892;4.064;2023-05-17T09:58:34;17.20;99.90
13354;DHT22;6746;50.892;4.064;2023-05-17T10:01:11;17.10;99.90
13354;DHT22;6746;50.892;4.064;2023-05-17T10:04:00;16.80;99.90
13354;DHT22;6746;50.892;4.064;2023-05-17T10:06:38;16.50;99.90
13354;DHT22;6746;50.892;4.064;2023-05-17T10:09:16;16.40;99.90
13354;DHT22;6746;50.892;4.064;2023-05-17T10:11:54;16.30;99.90
13354;DHT22;6746;50.892;4.064;2023-05-17T10:14:37;16.20;99.90
13354;DHT22;6746;50.892;4.064;2023-05-17T10:17:06;16.30;99.90
13354;DHT22;6746;50.892;4.064;2023-05-17T10:19:45;16.60;99.90
13354;DHT22;6746;50.892;4.064;2023-05-17T10:22:13;17.00;99.90
13354;DHT22;6746;50.892;4.064;2023-05-17T10:24:42;17.20;99.90
13354;DHT22;6746;50.892;4.064;2023-05-17T10:27:21;17.40;99.90
13354;DHT22;6746;50.892;4.064;2023-05-17T10:29:49;17.30;99.90
13354;DHT22;6746;50.892;4.064;2023-05-17T10:32:18;16.90;99.90
13354;DHT22;6746;50.892;4.064;2023-05-17T10:34:47;16.70;99.90
13354;DHT22;6746;50.892;4.064;2023-05-17T10:37:16;16.80;99.90
13354;DHT22;6746;50.892;4.064;2023-05-17T10:39:48;16.90;99.90
13354;DHT22;6746;50.892;4.064;2023-05-17T10:42:17;16.70;99.90
13354;DHT22;6746;50.892;4.064;2023-05-17T10:44:48;16.60;99.90
13354;DHT22;6746;50.892;4.064;2023-05-17T10:47:17;17.10;99.90
13354;DHT22;6746;50.892;4.064;2023-05-17T10:49:51;17.40;99.90
13354;DHT22;6746;50.892;4.064;2023-05-17T10:52:20;17.70;99.90
13354;DHT22;6746;50.892;4.064;2023-05-17T10:54:59;17.50;99.90
13354;DHT22;6746;50.892;4.064;2023-05-17T11:00:57;17.10;99.90
13354;DHT22;6746;50.892;4.064;2023-05-17T11:03:26;17.20;99.90
13354;DHT22;6746;50.892;4.064;2023-05-17T11:06:10;17.20;99.90
13354;DHT22;6746;50.892;4.064;2023-05-17T11:08:43;17.10;99.90
13354;DHT22;6746;50.892;4.064;2023-05-17T11:11:17;17.40;99.90
13354;DHT22;6746;50.892;4.064;2023-05-17T11:13:55;17.30;99.90
13354;DHT22;6746;50.892;4.064;2023-05-17T11:16:26;17.10;99.90
13354;DHT22;6746;50.892;4.064;2023-05-17T11:18:53;17.10;99.90
13354;DHT22;6746;50.892;4.064;2023-05-17T11:21:32;17.00;99.90
13354;DHT22;6746;50.892;4.064;2023-05-17T11:24:10;16.90;99.90
13354;DHT22;6746;50.892;4.064;2023-05-17T11:26:39;16.90;99.90
13354;DHT22;6746;50.892;4.064;2023-05-17T11:29:08;16.90;99.90
13354;DHT22;6746;50.892;4.064;2023-05-17T11:31:50;17.00;99.90
13354;DHT22;6746;50.892;4.064;2023-05-17T11:34:18;16.90;99.90
13354;DHT22;6746;50.892;4.064;2023-05-17T11:36:56;16.90;99.90
13354;DHT22;6746;50.892;4.064;2023-05-17T11:39:35;16.90;99.90
13354;DHT22;6746;50.892;4.064;2023-05-17T11:42:19;16.90;99.90
13354;DHT22;6746;50.892;4.064;2023-05-17T11:44:52;16.80;99.90
13354;DHT22;6746;50.892;4.064;2023-05-17T11:47:37;16.70;99.90
13354;DHT22;6746;50.892;4.064;2023-05-17T11:50:15;16.70;99.90
13354;DHT22;6746;50.892;4.064;2023-05-17T11:52:53;16.80;99.90
13354;DHT22;6746;50.892;4.064;2023-05-17T11:55:32;16.80;99.90
13354;DHT22;6746;50.892;4.064;2023-05-17T11:58:10;16.70;99.90
13354;DHT22;6746;50.892;4.064;2023-05-17T12:00:53;17.00;99.90
13354;DHT22;6746;50.892;4.064;2023-05-17T12:03:43;17.20;99.90
13354;DHT22;6746;50.892;4.064;2023-05-17T12:06:25;17.30;99.90
13354;DHT22;6746;50.892;4.064;2023-05-17T12:08:56;17.40;99.90
13354;DHT22;6746;50.892;4.064;2023-05-17T12:11:34;17.30;99.90
13354;DHT22;6746;50.892;4.064;2023-05-17T12:14:15;17.40;99.90
13354;DHT22;6746;50.892;4.064;2023-05-17T12:16:53;17.20;99.90
13354;DHT22;6746;50.892;4.064;2023-05-17T12:19:31;17.20;99.90
13354;DHT22;6746;50.892;4.064;2023-05-17T12:22:07;17.30;99.90
13354;DHT22;6746;50.892;4.064;2023-05-17T12:24:39;17.20;99.90
13354;DHT22;6746;50.892;4.064;2023-05-17T12:27:23;17.00;99.90
13354;DHT22;6746;50.892;4.064;2023-05-17T12:29:55;17.00;99.90
13354;DHT22;6746;50.892;4.064;2023-05-17T12:32:43;16.90;99.90
13354;DHT22;6746;50.892;4.064;2023-05-17T12:35:31;17.10;99.90
13354;DHT22;6746;50.892;4.064;2023-05-17T12:38:09;17.20;99.90
13354;DHT22;6746;50.892;4.064;2023-05-17T12:40:47;17.30;99.90
13354;DHT22;6746;50.892;4.064;2023-05-17T12:43:18;17.20;99.90
13354;DHT22;6746;50.892;4.064;2023-05-17T12:45:47;17.20;99.90
13354;DHT22;6746;50.892;4.064;2023-05-17T12:48:25;17.30;99.90
13354;DHT22;6746;50.892;4.064;2023-05-17T12:53:54;17.30;99.90
13354;DHT22;6746;50.892;4.064;2023-05-17T12:56:34;17.20;99.90
13354;DHT22;6746;50.892;4.064;2023-05-17T12:59:22;17.40;99.90
13354;DHT22;6746;50.892;4.064;2023-05-17T13:02:13;17.30;99.90
13354;DHT22;6746;50.892;4.064;2023-05-17T13:04:52;17.20;99.90
13354;DHT22;6746;50.892;4.064;2023-05-17T13:07:30;17.40;99.90
13354;DHT22;6746;50.892;4.064;2023-05-17T13:10:23;17.30;99.90
13354;DHT22;6746;50.892;4.064;2023-05-17T13:13:01;17.20;99.90
13354;DHT22;6746;50.892;4.064;2023-05-17T13:15:44;17.30;99.90
13354;DHT22;6746;50.892;4.064;2023-05-17T13:18:12;17.20;99.90
13354;DHT22;6746;50.892;4.064;2023-05-17T13:20:50;17.40;99.90
13354;DHT22;6746;50.892;4.064;2023-05-17T13:23:28;17.20;99.90
13354;DHT22;6746;50.892;4.064;2023-05-17T13:26:06;17.30;99.90
13354;DHT22;6746;50.892;4.064;2023-05-17T13:28:45;17.20;99.90
13354;DHT22;6746;50.892;4.064;2023-05-17T13:31:23;17.10;99.90
13354;DHT22;6746;50.892;4.064;2023-05-17T13:33:54;17.00;99.90
13354;DHT22;6746;50.892;4.064;2023-05-17T13:36:23;17.00;99.90
13354;DHT22;6746;50.892;4.064;2023-05-17T13:39:02;17.20;99.90
13354;DHT22;6746;50.892;4.064;2023-05-17T13:41:40;17.30;99.90
13354;DHT22;6746;50.892;4.064;2023-05-17T13:44:28;17.40;99.90
13354;DHT22;6746;50.892;4.064;2023-05-17T13:47:16;17.20;99.90
13354;DHT22;6746;50.892;4.064;2023-05-17T13:49:54;16.90;99.90
13354;DHT22;6746;50.892;4.064;2023-05-17T13:52:32;16.80;99.90
13354;DHT22;6746;50.892;4.064;2023-05-17T13:55:01;16.90;99.90
13354;DHT22;6746;50.892;4.064;2023-05-17T13:57:30;17.10;99.90
13354;DHT22;6746;50.892;4.064;2023-05-17T14:00:08;17.10;99.90
13354;DHT22;6746;50.892;4.064;2023-05-17T14:02:47;17.00;99.90
13354;DHT22;6746;50.892;4.064;2023-05-17T14:05:25;17.00;99.90
13354;DHT22;6746;50.892;4.064;2023-05-17T14:08:03;16.80;99.90
13354;DHT22;6746;50.892;4.064;2023-05-17T14:10:41;16.80;99.90
13354;DHT22;6746;50.892;4.064;2023-05-17T14:13:29;16.80;99.90
13354;DHT22;6746;50.892;4.064;2023-05-17T14:16:07;16.80;99.90
13354;DHT22;6746;50.892;4.064;2023-05-17T14:18:46;16.80;99.90
13354;DHT22;6746;50.892;4.064;2023-05-17T14:21:17;17.10;99.90
13354;DHT22;6746;50.892;4.064;2023-05-17T14:23:45;17.20;99.90
13354;DHT22;6746;50.892;4.064;2023-05-17T14:26:22;17.40;99.90
13354;DHT22;6746;50.892;4.064;2023-05-17T14:28:51;17.60;99.90
13354;DHT22;6746;50.892;4.064;2023-05-17T14:31:29;17.40;99.90
13354;DHT22;6746;50.892;4.064;2023-05-17T14:34:14;17.20;99.90
13354;DHT22;6746;50.892;4.064;2023-05-17T14:36:45;17.10;99.90
13354;DHT22;6746;50.892;4.064;2023-05-17T14:39:14;16.80;99.90
13354;DHT22;6746;50.892;4.064;2023-05-17T14:41:46;16.80;99.90
13354;DHT22;6746;50.892;4.064;2023-05-17T14:44:23;16.80;99.90
13354;DHT22;6746;50.892;4.064;2023-05-17T14:47:02;16.90;99.90
13354;DHT22;6746;50.892;4.064;2023-05-17T14:49:40;16.90;99.90
13354;DHT22;6746;50.892;4.064;2023-05-17T14:52:23;16.70;99.90
13354;DHT22;6746;50.892;4.064;2023-05-17T14:55:02;16.80;99.90
13354;DHT22;6746;50.892;4.064;2023-05-17T14:57:50;16.90;99.90
13354;DHT22;6746;50.892;4.064;2023-05-17T15:01:19;17.00;99.90
13354;DHT22;6746;50.892;4.064;2023-05-17T15:03:49;17.00;99.90
13354;DHT22;6746;50.892;4.064;2023-05-17T15:06:27;16.90;99.90
13354;DHT22;6746;50.892;4.064;2023-05-17T15:09:15;16.80;99.90
13354;DHT22;6746;50.892;4.064;2023-05-17T15:11:47;17.00;99.90
13354;DHT22;6746;50.892;4.064;2023-05-17T15:14:16;17.10;99.90
13354;DHT22;6746;50.892;4.064;2023-05-17T15:17:09;17.00;99.90
13354;DHT22;6746;50.892;4.064;2023-05-17T15:19:41;16.80;99.90
13354;DHT22;6746;50.892;4.064;2023-05-17T15:22:09;16.70;99.90
13354;DHT22;6746;50.892;4.064;2023-05-17T15:24:42;16.50;99.90
13354;DHT22;6746;50.892;4.064;2023-05-17T15:27:11;16.40;99.90
13354;DHT22;6746;50.892;4.064;2023-05-17T15:29:44;16.60;99.90
13354;DHT22;6746;50.892;4.064;2023-05-17T15:32:13;16.70;99.90
13354;DHT22;6746;50.892;4.064;2023-05-17T15:34:51;16.70;99.90
13354;DHT22;6746;50.892;4.064;2023-05-17T15:37:30;16.90;99.90
13354;DHT22;6746;50.892;4.064;2023-05-17T15:40:07;16.90;99.90
13354;DHT22;6746;50.892;4.064;2023-05-17T15:42:36;17.00;99.90
13354;DHT22;6746;50.892;4.064;2023-05-17T15:45:14;16.80;99.90
13354;DHT22;6746;50.892;4.064;2023-05-17T15:47:53;16.70;99.90
13354;DHT22;6746;50.892;4.064;2023-05-17T15:50:40;16.80;99.90
13354;DHT22;6746;50.892;4.064;2023-05-17T15:53:18;16.70;99.90
13354;DHT22;6746;50.892;4.064;2023-05-17T15:55:57;16.70;99.90
13354;DHT22;6746;50.892;4.064;2023-05-17T15:58:35;16.80;99.90
13354;DHT22;6746;50.892;4.064;2023-05-17T16:01:13;16.70;99.90
13354;DHT22;6746;50.892;4.064;2023-05-17T16:03:51;16.70;99.90
13354;DHT22;6746;50.892;4.064;2023-05-17T16:06:29;16.60;99.90
13354;DHT22;6746;50.892;4.064;2023-05-17T16:09:07;16.60;99.90
13354;DHT22;6746;50.892;4.064;2023-05-17T16:11:39;16.50;99.90
13354;DHT22;6746;50.892;4.064;2023-05-17T16:14:08;16.40;99.90
13354;DHT22;6746;50.892;4.064;2023-05-17T16:16:39;16.30;99.90
13354;DHT22;6746;50.892;4.064;2023-05-17T16:19:18;16.20;99.90
13354;DHT22;6746;50.892;4.064;2023-05-17T16:21:56;16.10;99.90
13354;DHT22;6746;50.892;4.064;2023-05-17T16:24:34;16.00;99.90
13354;DHT22;6746;50.892;4.064;2023-05-17T16:27:12;16.10;99.90
13354;DHT22;6746;50.892;4.064;2023-05-17T16:29:51;16.10;99.90
13354;DHT22;6746;50.892;4.064;2023-05-17T16:32:29;15.80;99.90
13354;DHT22;6746;50.892;4.064;2023-05-17T16:35:07;15.80;99.90
13354;DHT22;6746;50.892;4.064;2023-05-17T16:37:45;15.80;99.90
13354;DHT22;6746;50.892;4.064;2023-05-17T16:40:23;15.90;99.90
13354;DHT22;6746;50.892;4.064;2023-05-17T16:42:53;15.90;99.90
13354;DHT22;6746;50.892;4.064;2023-05-17T16:45:22;15.80;99.90
13354;DHT22;6746;50.892;4.064;2023-05-17T16:47:54;15.90;99.90
13354;DHT22;6746;50.892;4.064;2023-05-17T16:50:23;15.80;99.90
13354;DHT22;6746;50.892;4.064;2023-05-17T16:53:00;15.80;99.90
13354;DHT22;6746;50.892;4.064;2023-05-17T16:55:29;15.80;99.90
13354;DHT22;6746;50.892;4.064;2023-05-17T16:58:07;15.80;99.90
13354;DHT22;6746;50.892;4.064;2023-05-17T17:00:45;15.80;99.90